Time;durP1;ratioP1;P1;durP2;ratioP2;P2;SDS_P1;SDS_P2;PMS_P1;PMS_P2;Temp;Humidity;BMP_temperature;BMP_pressure;BME280_temperature;BME280_humidity;BME280_pressure;Samples;Min_cycle;Max_cycle;Signal;HPM_P1;HPM_P2
2022/11/11 00:00:03;;;;;;;43.83;37.60;;;;;21.90;101751.00;;;;2078271;28;20618;-46
2022/11/11 00:01:04;;;;;;;41.92;36.03;;;;;21.90;101755.00;;;;2078321;28;20205;-46
2022/11/11 00:02:05;;;;;;;39.17;34.55;;;;;22.00;101761.00;;;;2077610;28;20208;-46
2022/11/11 00:03:05;;;;;;;42.83;34.63;;;;;22.00;101757.00;;;;2074051;28;20207;-45
2022/11/11 00:04:05;;;;;;;40.47;33.20;;;;;22.00;101765.00;;;;2069781;28;20232;-46
2022/11/11 00:05:06;;;;;;;40.27;34.47;;;;;22.00;101766.00;;;;2070210;28;20236;-46
2022/11/11 00:06:11;;;;;;;39.23;31.20;;;;;22.00;101778.00;;;;2069756;28;20267;-45
2022/11/11 00:07:12;;;;;;;36.40;31.48;;;;;22.00;101777.00;;;;2067323;28;20218;-46
2022/11/11 00:08:12;;;;;;;36.73;31.37;;;;;22.00;101779.00;;;;2073289;28;20241;-46
2022/11/11 00:09:12;;;;;;;38.67;30.47;;;;;22.00;101781.00;;;;2074706;28;20710;-45
2022/11/11 00:10:13;;;;;;;35.30;30.43;;;;;22.00;101768.00;;;;2079289;28;20237;-45
2022/11/11 00:11:14;;;;;;;37.00;31.43;;;;;22.00;101774.00;;;;2079277;28;20271;-45
2022/11/11 00:12:14;;;;;;;36.63;32.30;;;;;22.00;101777.00;;;;2078480;28;20213;-45
2022/11/11 00:13:14;;;;;;;35.47;30.37;;;;;22.00;101779.00;;;;2079306;28;20736;-45
2022/11/11 00:14:15;;;;;;;34.97;29.43;;;;;22.00;101778.00;;;;2078925;28;20771;-45
2022/11/11 00:15:15;;;;;;;38.53;30.10;;;;;22.00;101783.00;;;;2078097;28;20693;-45
2022/11/11 00:16:17;;;;;;;34.87;30.40;;;;;22.00;101770.00;;;;2073220;28;20214;-46
2022/11/11 00:25:12;;;;;;;33.00;24.90;;;;;22.00;101753.00;;;;2079605;28;20221;-46
2022/11/11 00:26:13;;;;;;;30.00;25.17;;;;;22.00;101756.00;;;;2080132;28;20248;-46
2022/11/11 00:27:13;;;;;;;29.60;25.03;;;;;22.00;101752.00;;;;2079953;28;20241;-46
2022/11/11 00:28:16;;;;;;;29.93;25.83;;;;;22.00;101750.00;;;;2079711;28;20494;-46
2022/11/11 00:29:16;;;;;;;29.83;24.35;;;;;22.00;101747.00;;;;2078221;28;20289;-46
2022/11/11 00:30:16;;;;;;;26.97;22.57;;;;;22.00;101744.00;;;;2071858;28;20267;-46
2022/11/11 00:31:17;;;;;;;27.63;23.97;;;;;22.00;101745.00;;;;2071678;28;20218;-46
2022/11/11 00:32:23;;;;;;;28.33;23.60;;;;;22.00;101746.00;;;;2070920;28;20666;-46
2022/11/11 00:33:23;;;;;;;30.02;23.35;;;;;22.00;101745.00;;;;2072028;28;20632;-46
2022/11/11 00:34:23;;;;;;;29.07;23.40;;;;;22.00;101748.00;;;;2071141;28;20258;-46
2022/11/11 00:36:43;;;;;;;32.35;25.10;;;;;22.00;101749.00;;;;2079870;28;20244;-46
2022/11/11 00:37:44;;;;;;;26.53;22.17;;;;;22.00;101750.00;;;;2079998;28;20206;-47
2022/11/11 00:38:44;;;;;;;30.95;24.40;;;;;22.00;101752.00;;;;2080312;28;20655;-46
2022/11/11 00:39:45;;;;;;;29.70;24.00;;;;;21.90;101752.00;;;;2080361;28;20205;-46
2022/11/11 00:40:45;;;;;;;26.20;22.37;;;;;21.90;101756.00;;;;2079928;28;20205;-47
2022/11/11 00:41:46;;;;;;;28.47;23.00;;;;;21.90;101763.00;;;;2079212;28;20228;-46
2022/11/11 00:42:46;;;;;;;26.33;22.27;;;;;21.90;101762.00;;;;2071177;28;20219;-46
2022/11/11 00:43:46;;;;;;;27.10;22.80;;;;;21.90;101757.00;;;;2071401;28;20221;-46
2022/11/11 00:44:47;;;;;;;28.50;22.80;;;;;21.80;101764.00;;;;2071849;28;20258;-46
2022/11/11 00:45:47;;;;;;;28.33;23.00;;;;;21.80;101764.00;;;;2071574;28;20325;-45
2022/11/11 00:50:59;;;;;;;25.40;22.15;;;;;21.80;101762.00;;;;2076092;28;20205;-47
2022/11/11 00:51:59;;;;;;;25.25;20.17;;;;;21.80;101755.00;;;;2062843;28;20218;-46
2022/11/11 00:53:01;;;;;;;26.60;20.30;;;;;21.80;101758.00;;;;2064608;28;20207;-46
2022/11/11 00:54:01;;;;;;;23.13;18.75;;;;;21.80;101766.00;;;;2071155;28;20759;-45
2022/11/11 00:55:02;;;;;;;21.37;18.27;;;;;21.80;101758.00;;;;2073063;28;20226;-45
2022/11/11 00:56:02;;;;;;;20.80;18.60;;;;;21.80;101765.00;;;;2072974;28;20222;-46
2022/11/11 00:57:02;;;;;;;24.97;21.00;;;;;21.80;101782.00;;;;2071534;28;20701;-46
2022/11/11 00:58:03;;;;;;;21.50;17.90;;;;;21.80;101765.00;;;;2071342;28;20234;-47
2022/11/11 00:59:04;;;;;;;21.27;17.97;;;;;21.70;101766.00;;;;2071546;28;20670;-46
2022/11/11 01:00:05;;;;;;;23.17;17.38;;;;;21.80;101770.00;;;;2071433;28;20249;-45
2022/11/11 01:01:05;;;;;;;20.60;17.50;;;;;21.80;101775.00;;;;2071653;28;20222;-45
2022/11/11 01:02:05;;;;;;;21.03;18.20;;;;;21.70;101762.00;;;;2070534;28;20218;-44
2022/11/11 01:03:06;;;;;;;20.97;17.37;;;;;21.70;101777.00;;;;2070823;28;20217;-44
2022/11/11 01:04:06;;;;;;;22.60;17.30;;;;;21.70;101775.00;;;;2070562;28;20237;-44
2022/11/11 01:05:07;;;;;;;19.93;17.37;;;;;21.70;101767.00;;;;2071155;28;20298;-46
2022/11/11 01:06:08;;;;;;;19.77;16.97;;;;;21.70;101773.00;;;;2071302;28;20246;-45
2022/11/11 01:07:09;;;;;;;20.17;16.73;;;;;21.70;101759.00;;;;2071396;28;20253;-47
2022/11/11 01:08:09;;;;;;;20.17;16.10;;;;;21.70;101774.00;;;;2070566;28;20211;-46
2022/11/11 01:09:09;;;;;;;20.93;16.13;;;;;21.70;101772.00;;;;2070576;28;20221;-46
2022/11/11 01:10:10;;;;;;;19.40;16.13;;;;;21.70;101776.00;;;;2071496;28;20290;-46
2022/11/11 01:11:18;;;;;;;21.67;16.97;;;;;21.70;101778.00;;;;2071581;28;20251;-45
2022/11/11 01:12:18;;;;;;;17.45;15.65;;;;;21.70;101773.00;;;;2061747;28;20290;-46
2022/11/11 01:13:19;;;;;;;19.50;15.80;;;;;21.70;101773.00;;;;2062593;28;20733;-46
2022/11/11 01:14:20;;;;;;;17.45;15.55;;;;;21.70;101770.00;;;;2070825;28;20275;-45
2022/11/11 01:15:20;;;;;;;18.33;14.87;;;;;21.70;101769.00;;;;2071356;28;20726;-45
2022/11/11 01:16:22;;;;;;;18.57;14.60;;;;;21.70;101770.00;;;;2071258;28;20214;-45
2022/11/11 01:17:23;;;;;;;18.10;14.95;;;;;21.70;101780.00;;;;2075567;28;20221;-46
2022/11/11 01:18:24;;;;;;;19.53;15.87;;;;;21.70;101777.00;;;;2079472;28;20241;-46
2022/11/11 01:19:24;;;;;;;17.52;14.27;;;;;21.70;101774.00;;;;2079082;28;20221;-46
2022/11/11 01:20:25;;;;;;;16.70;14.40;;;;;21.60;101772.00;;;;2079527;28;20317;-45
2022/11/11 01:21:25;;;;;;;16.60;14.27;;;;;21.70;101769.00;;;;2079610;28;20220;-46
2022/11/11 01:22:26;;;;;;;18.13;14.07;;;;;21.70;101761.00;;;;2079015;28;20233;-46
2022/11/11 01:23:27;;;;;;;16.33;14.18;;;;;21.70;101759.00;;;;2079138;28;20237;-46
2022/11/11 01:24:27;;;;;;;16.13;14.10;;;;;21.60;101767.00;;;;2078660;28;20225;-47
2022/11/11 01:25:28;;;;;;;17.37;13.80;;;;;21.60;101763.00;;;;2079713;28;20743;-46
2022/11/11 01:26:28;;;;;;;15.97;14.27;;;;;21.70;101764.00;;;;2080042;28;20583;-46
2022/11/11 01:27:28;;;;;;;14.87;13.07;;;;;21.70;101771.00;;;;2079739;28;20216;-46
2022/11/11 01:28:29;;;;;;;15.10;12.67;;;;;21.70;101763.00;;;;2079586;28;20264;-46
2022/11/11 01:29:29;;;;;;;15.33;12.37;;;;;21.70;101767.00;;;;2079725;28;20245;-45
2022/11/11 01:30:30;;;;;;;15.53;13.40;;;;;21.60;101760.00;;;;2079692;28;20696;-45
2022/11/11 01:31:30;;;;;;;16.30;13.77;;;;;21.70;101761.00;;;;2079665;28;20232;-45
2022/11/11 01:32:31;;;;;;;15.27;13.10;;;;;21.70;101759.00;;;;2078888;28;20449;-46
2022/11/11 01:33:31;;;;;;;14.30;12.33;;;;;21.60;101756.00;;;;2079752;28;20236;-46
2022/11/11 01:34:31;;;;;;;15.33;12.07;;;;;21.70;101765.00;;;;2079544;28;20291;-45
2022/11/11 01:35:32;;;;;;;14.13;11.83;;;;;21.70;101770.00;;;;2078169;28;20213;-45
2022/11/11 01:36:32;;;;;;;13.00;11.60;;;;;21.60;101760.00;;;;2070707;28;20249;-45
2022/11/11 01:37:33;;;;;;;15.10;11.87;;;;;21.70;101758.00;;;;2071037;28;20218;-46
2022/11/11 01:38:33;;;;;;;14.20;12.30;;;;;21.60;101766.00;;;;2077425;28;20225;-47
2022/11/11 01:39:33;;;;;;;15.60;11.80;;;;;21.70;101767.00;;;;2070492;28;20209;-47
2022/11/11 01:40:43;;;;;;;14.27;11.80;;;;;21.70;101769.00;;;;2079689;28;20209;-46
2022/11/11 01:41:44;;;;;;;13.32;10.85;;;;;21.60;101769.00;;;;2071031;28;20268;-46
2022/11/11 01:42:48;;;;;;;12.60;11.27;;;;;21.60;101777.00;;;;2071048;28;20724;-46
2022/11/11 01:43:48;;;;;;;13.88;11.93;;;;;21.60;101774.00;;;;2071712;28;20203;-46
2022/11/11 01:44:49;;;;;;;14.67;11.17;;;;;21.60;101774.00;;;;2071283;28;20213;-46
2022/11/11 01:45:53;;;;;;;14.57;11.53;;;;;21.60;101773.00;;;;2071535;28;20249;-46
2022/11/11 01:46:57;;;;;;;13.65;10.65;;;;;21.60;101783.00;;;;2071434;28;20218;-45
2022/11/11 01:49:41;;;;;;;12.63;11.32;;;;;21.60;101782.00;;;;2064619;28;20210;-45
2022/11/11 01:50:41;;;;;;;18.50;12.00;;;;;21.60;101780.00;;;;2073338;28;20218;-45
2022/11/11 01:52:21;;;;;;;15.50;11.67;;;;;21.70;101780.00;;;;2078557;28;20225;-46
2022/11/11 01:53:22;;;;;;;16.20;11.13;;;;;21.70;101782.00;;;;2079008;28;20201;-45
2022/11/11 01:54:29;;;;;;;18.77;10.90;;;;;21.70;101771.00;;;;2078097;28;20263;-45
2022/11/11 01:55:29;;;;;;;17.25;12.05;;;;;21.70;101777.00;;;;2075209;28;20677;-49
2022/11/11 01:56:30;;;;;;;19.00;11.53;;;;;21.70;101766.00;;;;2062061;28;20356;-45
2022/11/11 01:57:33;;;;;;;14.93;10.40;;;;;21.70;101784.00;;;;2062302;28;20219;-45
2022/11/11 01:58:34;;;;;;;13.25;9.68;;;;;21.60;101783.00;;;;2061336;28;21059;-46
2022/11/11 01:59:34;;;;;;;15.97;9.30;;;;;21.60;101782.00;;;;2062335;28;20226;-45
2022/11/11 02:00:35;;;;;;;13.67;8.23;;;;;21.20;101780.00;;;;2066590;28;20313;-47
2022/11/11 02:01:35;;;;;;;13.20;8.70;;;;;21.50;101784.00;;;;2078549;28;20223;-46
2022/11/11 02:03:06;;;;;;;13.40;7.53;;;;;21.50;101786.00;;;;2077286;28;20278;-46
2022/11/11 02:06:44;;;;;;;11.82;7.72;;;;;21.60;101789.00;;;;2070027;28;20221;-45
2022/11/11 02:07:44;;;;;;;9.37;6.77;;;;;21.60;101785.00;;;;2072512;28;20218;-46
2022/11/11 02:08:45;;;;;;;8.20;5.50;;;;;21.70;101760.00;;;;2078405;28;20213;-46
2022/11/11 02:09:46;;;;;;;13.37;7.60;;;;;21.60;101779.00;;;;2067966;28;20210;-45
2022/11/11 02:10:46;;;;;;;8.37;5.93;;;;;21.70;101778.00;;;;2070189;28;20242;-46
2022/11/11 02:14:36;;;;;;;8.00;5.63;;;;;21.70;101775.00;;;;2071955;28;20430;-44
2022/11/11 02:15:36;;;;;;;9.05;5.95;;;;;21.70;101775.00;;;;2078869;28;20217;-45
2022/11/11 02:16:37;;;;;;;8.43;5.70;;;;;21.70;101777.00;;;;2072350;28;20304;-46
2022/11/11 02:17:37;;;;;;;10.07;6.13;;;;;21.60;101774.00;;;;2070212;28;20214;-46
2022/11/11 02:18:37;;;;;;;7.47;5.50;;;;;21.70;101775.00;;;;2061916;28;20667;-45
2022/11/11 02:19:49;;;;;;;10.47;5.60;;;;;21.70;101781.00;;;;2076154;28;20881;-45
2022/11/11 02:20:50;;;;;;;9.65;6.68;;;;;21.70;101775.00;;;;2078192;28;20263;-45
2022/11/11 02:21:54;;;;;;;9.00;5.03;;;;;21.70;101780.00;;;;2072014;28;20210;-46
2022/11/11 02:23:05;;;;;;;8.30;5.82;;;;;21.70;101779.00;;;;2070792;28;20224;-47
2022/11/11 02:24:14;;;;;;;5.68;5.07;;;;;21.70;101777.00;;;;2066568;28;20702;-46
2022/11/11 02:25:17;;;;;;;6.90;5.05;;;;;21.70;101775.00;;;;2069278;28;20249;-45
2022/11/11 02:26:17;;;;;;;8.55;5.75;;;;;21.70;101763.00;;;;2063345;28;20226;-46
2022/11/11 02:27:17;;;;;;;8.10;4.40;;;;;21.70;101776.00;;;;2070649;28;20588;-45
2022/11/11 02:28:19;;;;;;;8.57;5.40;;;;;21.60;101775.00;;;;2078850;28;20601;-45
2022/11/11 02:29:19;;;;;;;9.05;5.25;;;;;21.60;101768.00;;;;2069424;28;20748;-46
2022/11/11 02:30:20;;;;;;;6.67;5.20;;;;;21.60;101774.00;;;;2069477;28;20222;-47
2022/11/11 02:31:27;;;;;;;6.20;5.20;;;;;21.60;101779.00;;;;2061409;28;20218;-45
2022/11/11 02:32:28;;;;;;;6.75;4.47;;;;;21.60;101781.00;;;;2069229;28;20465;-46
2022/11/11 02:33:28;;;;;;;6.37;4.43;;;;;21.50;101790.00;;;;2070703;28;20218;-46
2022/11/11 02:34:32;;;;;;;6.60;4.43;;;;;21.50;101786.00;;;;2070783;28;20211;-46
2022/11/11 02:35:45;;;;;;;6.32;4.75;;;;;21.50;101783.00;;;;2074762;28;20301;-47
2022/11/11 02:36:46;;;;;;;8.20;4.45;;;;;21.50;101790.00;;;;2069639;28;20297;-46
2022/11/11 02:37:51;;;;;;;7.00;4.70;;;;;21.50;101801.00;;;;2070510;28;20273;-45
2022/11/11 02:38:51;;;;;;;6.20;4.40;;;;;21.40;101789.00;;;;2075722;28;20571;-45
2022/11/11 02:39:53;;;;;;;6.07;4.37;;;;;21.40;101803.00;;;;2078263;28;20221;-45
2022/11/11 02:42:14;;;;;;;7.45;4.93;;;;;21.60;101793.00;;;;2068824;28;20660;-46
2022/11/11 02:43:14;;;;;;;7.90;4.90;;;;;21.60;101802.00;;;;2059331;28;20298;-46
2022/11/11 02:44:15;;;;;;;22.83;4.97;;;;;21.60;101814.00;;;;2065791;28;20238;-45
2022/11/11 02:45:15;;;;;;;10.00;5.13;;;;;21.70;101804.00;;;;2074755;28;20842;-50
2022/11/11 02:46:15;;;;;;;10.93;5.00;;;;;21.70;101812.00;;;;2079067;28;20210;-49
2022/11/11 02:47:16;;;;;;;7.93;4.07;;;;;21.70;101807.00;;;;2078341;28;20202;-48
2022/11/11 02:48:16;;;;;;;7.33;4.40;;;;;21.70;101809.00;;;;2079314;28;20236;-46
2022/11/11 02:49:16;;;;;;;6.70;4.87;;;;;21.70;101812.00;;;;2079411;28;20209;-46
2022/11/11 02:50:17;;;;;;;5.90;4.60;;;;;21.70;101808.00;;;;2079027;28;20224;-46
2022/11/11 02:51:17;;;;;;;6.63;4.37;;;;;21.70;101810.00;;;;2078768;28;20271;-45
2022/11/11 02:52:17;;;;;;;6.73;4.80;;;;;21.70;101810.00;;;;2077798;28;20600;-46
2022/11/11 02:53:18;;;;;;;8.43;4.80;;;;;21.70;101810.00;;;;2079056;28;20885;-45
2022/11/11 02:54:18;;;;;;;6.07;4.47;;;;;21.70;101807.00;;;;2078774;28;20280;-45
2022/11/11 02:55:18;;;;;;;7.50;4.40;;;;;21.70;101807.00;;;;2075920;28;20207;-47
2022/11/11 02:57:06;;;;;;;6.30;4.53;;;;;21.70;101800.00;;;;2071012;28;20206;-46
2022/11/11 02:57:39;;;;;;;5.18;3.70;;;;;21.70;101807.00;;;;2070945;28;20214;-45
2022/11/11 02:58:39;;;;;;;5.20;4.10;;;;;21.70;101799.00;;;;2071073;28;20225;-45
2022/11/11 02:59:40;;;;;;;7.20;4.30;;;;;21.70;101798.00;;;;2070381;28;20234;-45
2022/11/11 03:00:41;;;;;;;5.83;3.83;;;;;21.70;101789.00;;;;2069846;28;20222;-45
2022/11/11 03:01:41;;;;;;;5.55;3.83;;;;;21.80;101792.00;;;;2070465;28;20264;-46
2022/11/11 03:02:42;;;;;;;7.07;4.50;;;;;21.70;101786.00;;;;2070059;28;20304;-46
2022/11/11 03:03:42;;;;;;;9.93;4.43;;;;;21.60;101794.00;;;;2071099;28;20214;-45
2022/11/11 03:04:42;;;;;;;7.80;4.17;;;;;21.60;101795.00;;;;2070716;28;20234;-45
2022/11/11 03:05:43;;;;;;;4.97;3.73;;;;;21.60;101799.00;;;;2070959;28;20563;-46
2022/11/11 03:06:43;;;;;;;6.20;4.57;;;;;21.60;101793.00;;;;2070646;28;20210;-46
2022/11/11 03:07:43;;;;;;;5.90;3.93;;;;;21.60;101790.00;;;;2070653;28;20214;-45
2022/11/11 03:08:44;;;;;;;7.00;3.90;;;;;21.60;101668.00;;;;2069089;28;20218;-46
2022/11/11 03:09:44;;;;;;;5.53;3.50;;;;;21.60;101790.00;;;;2070647;28;20214;-46
2022/11/11 03:10:44;;;;;;;6.40;3.80;;;;;21.60;101794.00;;;;2074562;28;20217;-46
2022/11/11 03:11:44;;;;;;;6.10;3.73;;;;;21.60;101790.00;;;;2072662;28;20511;-46
2022/11/11 03:12:45;;;;;;;4.47;3.43;;;;;21.50;101780.00;;;;2070418;28;20210;-46
2022/11/11 03:13:45;;;;;;;4.30;3.40;;;;;21.50;101780.00;;;;2070036;28;20213;-45
2022/11/11 03:14:45;;;;;;;5.47;4.10;;;;;21.50;101788.00;;;;2070325;28;20233;-47
2022/11/11 03:15:46;;;;;;;5.50;4.67;;;;;21.50;101786.00;;;;2070862;28;20284;-46
2022/11/11 03:18:05;;;;;;;9.25;6.95;;;;;21.50;101782.00;;;;2075878;28;20213;-45
2022/11/11 03:19:06;;;;;;;10.60;8.60;;;;;21.50;101790.00;;;;2078802;28;20222;-45
2022/11/11 03:21:35;;;;;;;14.52;12.20;;;;;21.50;101788.00;;;;2078686;28;20613;-45
2022/11/11 03:22:35;;;;;;;18.33;14.17;;;;;21.50;101781.00;;;;2078330;28;20316;-46
2022/11/11 03:23:35;;;;;;;22.40;17.40;;;;;21.50;101787.00;;;;2078507;28;20206;-46
2022/11/11 03:25:54;;;;;;;26.73;19.35;;;;;21.50;101787.00;;;;2076696;28;20221;-46
2022/11/11 03:26:55;;;;;;;29.30;19.43;;;;;21.50;101787.00;;;;2069641;28;20221;-46
2022/11/11 03:27:55;;;;;;;27.37;21.03;;;;;21.50;101787.00;;;;2078010;28;20217;-45
2022/11/11 03:28:55;;;;;;;27.80;20.90;;;;;21.50;101784.00;;;;2068126;28;20237;-46
2022/11/11 03:29:56;;;;;;;26.93;19.60;;;;;21.50;101783.00;;;;2069919;28;20286;-45
2022/11/11 03:30:57;;;;;;;32.40;21.30;;;;;21.50;101788.00;;;;2070500;28;20213;-46
2022/11/11 03:31:58;;;;;;;28.15;21.45;;;;;21.40;101774.00;;;;2070067;28;20733;-46
2022/11/11 03:32:59;;;;;;;29.13;20.60;;;;;21.50;101773.00;;;;2070670;28;20213;-46
2022/11/11 03:34:17;;;;;;;31.05;20.92;;;;;21.40;101776.00;;;;2070109;28;20230;-46
2022/11/11 03:35:17;;;;;;;29.35;22.30;;;;;21.40;101781.00;;;;2076039;28;20213;-46
2022/11/11 03:36:17;;;;;;;25.50;19.80;;;;;21.50;101770.00;;;;2078860;28;20236;-46
2022/11/11 03:38:36;;;;;;;25.70;19.50;;;;;21.40;101774.00;;;;2070351;28;20206;-46
2022/11/11 03:39:37;;;;;;;27.37;20.70;;;;;21.40;101776.00;;;;2070321;28;20214;-46
2022/11/11 03:40:37;;;;;;;27.73;20.33;;;;;21.40;101770.00;;;;2070219;28;20210;-46
2022/11/11 03:41:37;;;;;;;25.40;19.40;;;;;21.40;101774.00;;;;2070641;28;20202;-46
2022/11/11 03:42:38;;;;;;;26.43;19.50;;;;;21.40;101768.00;;;;2073344;28;20216;-46
2022/11/11 03:43:38;;;;;;;27.60;19.83;;;;;21.40;101767.00;;;;2078255;28;20209;-45
2022/11/11 03:44:38;;;;;;;27.27;19.40;;;;;21.40;101767.00;;;;2077986;28;20578;-46
2022/11/11 03:45:39;;;;;;;24.30;17.77;;;;;21.40;101759.00;;;;2078388;28;20590;-46
2022/11/11 03:46:39;;;;;;;22.80;17.97;;;;;21.40;101765.00;;;;2078701;28;20608;-45
2022/11/11 03:47:39;;;;;;;26.60;19.53;;;;;21.40;101762.00;;;;2078546;28;20351;-46
2022/11/11 03:48:40;;;;;;;21.93;17.70;;;;;21.40;101765.00;;;;2078602;28;20197;-46
2022/11/11 03:49:41;;;;;;;23.10;16.63;;;;;21.40;101766.00;;;;2078528;28;20274;-46
2022/11/11 03:50:42;;;;;;;21.13;15.65;;;;;21.50;101774.00;;;;2078039;28;20206;-45
2022/11/11 03:51:42;;;;;;;24.53;16.10;;;;;21.50;101752.00;;;;2074390;28;20226;-46
2022/11/11 03:52:42;;;;;;;20.20;15.87;;;;;21.50;101769.00;;;;2069946;28;20854;-46
2022/11/11 03:53:43;;;;;;;24.63;16.80;;;;;21.40;101767.00;;;;2070176;28;20221;-45
2022/11/11 03:54:43;;;;;;;18.67;15.77;;;;;21.40;101766.00;;;;2070361;28;20214;-46
2022/11/11 03:55:43;;;;;;;21.03;16.10;;;;;21.40;101770.00;;;;2073542;28;20214;-46
2022/11/11 03:56:44;;;;;;;21.00;15.70;;;;;21.40;101769.00;;;;2074554;28;20283;-46
2022/11/11 03:57:45;;;;;;;19.70;15.70;;;;;21.40;101775.00;;;;2078567;28;20217;-46
2022/11/11 03:58:45;;;;;;;20.38;16.77;;;;;21.40;101775.00;;;;2078651;28;20217;-46
2022/11/11 03:59:45;;;;;;;20.00;15.90;;;;;21.40;101773.00;;;;2071406;28;20222;-45
2022/11/11 04:00:46;;;;;;;20.00;15.70;;;;;21.40;101766.00;;;;2078274;28;20309;-46
2022/11/11 04:10:58;;;;;;;17.25;13.15;;;;;21.40;101784.00;;;;2078231;28;20727;-45
2022/11/11 04:11:59;;;;;;;16.20;11.97;;;;;21.40;101790.00;;;;2068988;28;20222;-46
2022/11/11 04:16:55;;;;;;;14.32;10.45;;;;;21.30;101797.00;;;;2070792;28;20215;-46
2022/11/11 04:17:56;;;;;;;14.00;11.50;;;;;21.30;101801.00;;;;2069141;28;20250;-45
2022/11/11 04:21:43;;;;;;;16.38;11.10;;;;;21.20;101810.00;;;;2077954;28;20232;-45
2022/11/11 04:22:43;;;;;;;12.38;10.05;;;;;21.20;101796.00;;;;2078170;28;20214;-46
2022/11/11 04:23:44;;;;;;;13.60;10.47;;;;;21.20;101800.00;;;;2078241;28;20209;-45
2022/11/11 04:26:03;;;;;;;13.77;10.02;;;;;21.10;101794.00;;;;2073477;28;20594;-44
2022/11/11 04:27:05;;;;;;;11.20;8.87;;;;;21.20;101790.00;;;;2075530;28;20244;-46
2022/11/11 04:29:27;;;;;;;10.43;8.02;;;;;21.10;101788.00;;;;2078494;28;20213;-44
2022/11/11 04:30:27;;;;;;;12.52;9.32;;;;;21.10;101785.00;;;;2078451;28;20307;-45
2022/11/11 04:31:28;;;;;;;11.40;8.30;;;;;21.10;101784.00;;;;2078037;28;20206;-46
2022/11/11 04:32:34;;;;;;;10.53;8.20;;;;;21.10;101786.00;;;;2077964;28;20263;-46
2022/11/11 04:33:34;;;;;;;11.02;8.07;;;;;21.10;101789.00;;;;2077786;28;20644;-46
2022/11/11 04:34:35;;;;;;;12.20;8.20;;;;;21.10;101784.00;;;;2077048;28;20225;-45
2022/11/11 04:35:35;;;;;;;13.40;8.57;;;;;21.10;101787.00;;;;2070140;28;20226;-45
2022/11/11 04:36:35;;;;;;;10.10;8.13;;;;;21.10;101788.00;;;;2072623;28;20216;-45
2022/11/11 04:37:43;;;;;;;11.60;8.47;;;;;21.10;101783.00;;;;2078581;28;20213;-45
2022/11/11 04:41:22;;;;;;;9.90;7.63;;;;;21.10;101782.00;;;;2078292;28;20228;-45
2022/11/11 04:42:22;;;;;;;10.83;7.40;;;;;21.10;101789.00;;;;2077961;28;20463;-47
2022/11/11 04:43:23;;;;;;;10.80;7.43;;;;;21.10;101779.00;;;;2078529;28;20217;-46
2022/11/11 04:45:42;;;;;;;10.95;7.82;;;;;21.10;101784.00;;;;2064982;28;20253;-45
2022/11/11 04:46:42;;;;;;;11.30;7.17;;;;;21.10;101782.00;;;;2081388;28;20217;-46
2022/11/11 04:47:56;;;;;;;9.63;6.70;;;;;21.00;101787.00;;;;2072521;28;20217;-46
2022/11/11 04:48:56;;;;;;;8.88;6.72;;;;;21.10;101785.00;;;;2070166;28;20221;-45
2022/11/11 04:49:57;;;;;;;8.73;6.70;;;;;21.10;101787.00;;;;2070330;28;20686;-45
2022/11/11 04:50:57;;;;;;;8.57;6.60;;;;;21.00;101784.00;;;;2075880;28;20685;-45
2022/11/11 04:53:16;;;;;;;7.80;6.35;;;;;21.00;101781.00;;;;2078715;28;20213;-45
2022/11/11 04:54:16;;;;;;;9.13;6.57;;;;;21.00;101774.00;;;;2079003;28;20209;-45
2022/11/11 04:56:48;;;;;;;7.93;6.13;;;;;21.00;101779.00;;;;2071801;28;20249;-46
2022/11/11 04:57:49;;;;;;;8.07;5.70;;;;;21.00;101773.00;;;;2071723;28;20212;-45
2022/11/11 04:59:14;;;;;;;6.03;5.30;;;;;21.00;101775.00;;;;2071125;28;20253;-45
2022/11/11 05:00:14;;;;;;;6.28;5.45;;;;;21.00;101777.00;;;;2071353;28;20216;-46
2022/11/11 05:03:14;;;;;;;7.10;5.88;;;;;21.00;101774.00;;;;2071592;28;20214;-45
2022/11/11 05:03:53;;;;;;;7.28;4.95;;;;;21.00;101774.00;;;;2079196;28;20984;-45
2022/11/11 05:04:53;;;;;;;7.27;5.27;;;;;21.00;101775.00;;;;2079593;28;20933;-45
2022/11/11 05:08:54;;;;;;;5.63;4.90;;;;;21.00;101773.00;;;;2074737;28;20226;-45
2022/11/11 05:09:55;;;;;;;6.43;4.80;;;;;21.00;101778.00;;;;2078247;28;20755;-44
2022/11/11 05:10:55;;;;;;;6.93;4.90;;;;;20.90;101774.00;;;;2079780;28;20279;-45
2022/11/11 05:11:55;;;;;;;5.83;4.67;;;;;21.00;101778.00;;;;2078941;28;20226;-45
2022/11/11 05:21:19;;;;;;;5.60;4.70;;;;;20.90;101782.00;;;;2079664;28;20275;-45
2022/11/11 05:22:22;;;;;;;5.80;4.63;;;;;20.90;101794.00;;;;2070397;28;20201;-44
2022/11/11 05:25:23;;;;;;;5.38;4.30;;;;;20.90;101799.00;;;;2077995;28;20217;-44
2022/11/11 05:26:02;;;;;;;5.07;3.80;;;;;20.90;101800.00;;;;2077361;28;20209;-45
2022/11/11 05:27:02;;;;;;;4.53;4.00;;;;;20.90;101806.00;;;;2071683;28;20234;-45
2022/11/11 05:28:03;;;;;;;4.97;3.97;;;;;20.90;101794.00;;;;2070847;28;20214;-45
2022/11/11 05:29:03;;;;;;;6.63;4.40;;;;;20.90;101796.00;;;;2070801;28;20668;-45
2022/11/11 05:30:04;;;;;;;4.40;3.67;;;;;20.90;101789.00;;;;2070575;28;20218;-44
2022/11/11 05:31:04;;;;;;;4.40;3.60;;;;;20.90;101792.00;;;;2071532;28;20218;-45
2022/11/11 05:32:06;;;;;;;4.93;3.90;;;;;20.90;101790.00;;;;2070929;28;20984;-45
2022/11/11 05:33:07;;;;;;;4.97;3.45;;;;;20.90;101793.00;;;;2071617;28;20247;-45
2022/11/11 05:34:07;;;;;;;4.20;3.20;;;;;20.90;101788.00;;;;2071233;28;20222;-45
2022/11/11 05:35:08;;;;;;;3.70;3.30;;;;;20.90;101790.00;;;;2070995;28;20214;-46
2022/11/11 05:36:08;;;;;;;3.78;3.38;;;;;20.90;101785.00;;;;2078452;28;20693;-45
2022/11/11 05:37:09;;;;;;;3.70;3.23;;;;;20.90;101789.00;;;;2079567;28;20214;-44
2022/11/11 05:38:21;;;;;;;5.70;4.00;;;;;20.90;101789.00;;;;2079426;28;20216;-45
2022/11/11 05:39:21;;;;;;;5.80;4.15;;;;;20.90;101789.00;;;;2074187;28;20297;-45
2022/11/11 05:40:21;;;;;;;5.10;4.10;;;;;20.90;101787.00;;;;2070922;28;20224;-45
2022/11/11 05:41:22;;;;;;;4.77;3.30;;;;;20.90;101799.00;;;;2071056;28;20241;-45
2022/11/11 05:42:22;;;;;;;4.17;3.00;;;;;20.90;101792.00;;;;2077731;28;20587;-45
2022/11/11 05:43:23;;;;;;;3.70;3.30;;;;;20.90;101791.00;;;;2074853;28;20556;-46
2022/11/11 05:44:23;;;;;;;3.67;3.10;;;;;20.90;101803.00;;;;2071163;28;20210;-45
2022/11/11 05:45:23;;;;;;;3.93;2.90;;;;;20.90;101799.00;;;;2071229;28;20213;-44
2022/11/11 05:46:23;;;;;;;4.13;2.77;;;;;20.90;101797.00;;;;2071006;28;20206;-44
2022/11/11 05:47:24;;;;;;;5.33;3.70;;;;;20.90;101799.00;;;;2071286;28;20198;-45
2022/11/11 05:48:24;;;;;;;3.90;2.97;;;;;20.90;101800.00;;;;2071018;28;20292;-45
2022/11/11 05:49:25;;;;;;;4.30;3.30;;;;;20.80;101796.00;;;;2071353;28;20293;-45
2022/11/11 05:50:25;;;;;;;5.20;3.30;;;;;20.90;101804.00;;;;2071431;28;20210;-45
2022/11/11 05:51:28;;;;;;;4.53;3.27;;;;;20.90;101800.00;;;;2071324;28;20206;-46
2022/11/11 05:52:28;;;;;;;4.32;3.13;;;;;20.90;101796.00;;;;2070460;28;20725;-45
2022/11/11 05:53:29;;;;;;;5.83;3.07;;;;;20.80;101790.00;;;;2070901;28;20289;-45
2022/11/11 05:54:29;;;;;;;3.63;2.80;;;;;20.80;101790.00;;;;2071280;28;20568;-45
2022/11/11 05:55:29;;;;;;;3.80;3.07;;;;;20.80;101791.00;;;;2072932;28;20704;-45
2022/11/11 05:56:30;;;;;;;4.80;3.10;;;;;20.80;101790.00;;;;2071286;28;20285;-45
2022/11/11 05:57:30;;;;;;;3.83;2.93;;;;;20.80;101799.00;;;;2072676;28;20309;-46
2022/11/11 05:58:30;;;;;;;4.50;2.97;;;;;20.80;101796.00;;;;2076838;28;20232;-45
2022/11/11 05:59:30;;;;;;;4.83;3.03;;;;;20.80;101805.00;;;;2071358;28;20293;-46
2022/11/11 06:00:31;;;;;;;5.30;3.00;;;;;20.80;101799.00;;;;2071185;28;20224;-45
2022/11/11 06:01:31;;;;;;;3.57;2.77;;;;;20.90;101800.00;;;;2071311;28;20229;-45
2022/11/11 06:02:32;;;;;;;4.03;3.23;;;;;20.80;101806.00;;;;2070545;28;20238;-45
2022/11/11 06:03:32;;;;;;;4.07;3.03;;;;;20.80;101810.00;;;;2076800;28;20258;-45
2022/11/11 06:04:34;;;;;;;3.13;2.80;;;;;20.80;101805.00;;;;2077958;28;20221;-46
2022/11/11 06:05:37;;;;;;;3.78;2.55;;;;;20.80;101813.00;;;;2079180;28;20221;-45
2022/11/11 06:06:37;;;;;;;3.13;2.70;;;;;20.80;101807.00;;;;2078719;28;20256;-45